Time,TemperatureF,DewpointF,PressureIn,WindDirection,WindDirectionDegrees,WindSpeedMPH,WindSpeedGustMPH,Humidity,HourlyPrecipIn,Conditions,Clouds,dailyrainin,SolarRadiationWatts/m^2,SoftwareType,DateUTC
2013-02-08 00:02:00,18.0,3.0,-100.00,NNE,25,3.0,6.0,52,0.00,,,0.00,0.000000,,2013-02-08 05:02:00,
2013-02-08 00:12:00,18.0,3.0,-100.00,NNE,25,3.0,6.0,52,0.00,,,0.00,0.000000,,2013-02-08 05:12:00,
2013-02-08 00:32:00,23.0,5.0,-100.00,WNW,294,5.0,18.0,46,0.00,,,0.00,0.000000,,2013-02-08 05:32:00,
2013-02-08 00:42:00,23.0,5.0,-100.00,WNW,294,5.0,18.0,46,0.00,,,0.00,0.000000,,2013-02-08 05:42:00,
2013-02-08 00:52:00,23.0,5.0,-100.00,WNW,294,5.0,18.0,46,0.00,,,0.00,0.000000,,2013-02-08 05:52:00,
2013-02-08 01:02:00,23.0,5.0,-100.00,WNW,294,5.0,18.0,46,0.00,,,0.00,0.000000,,2013-02-08 06:02:00,
2013-02-08 01:11:00,23.0,5.0,-100.00,WNW,294,5.0,18.0,46,0.00,,,0.00,0.000000,,2013-02-08 06:11:00,
2013-02-08 01:32:00,23.0,2.0,-100.00,NNE,12,5.0,12.0,40,0.00,,,0.00,0.000000,,2013-02-08 06:32:00,
2013-02-08 01:42:00,23.0,2.0,-100.00,NNE,12,5.0,12.0,40,0.00,,,0.00,0.000000,,2013-02-08 06:42:00,
2013-02-08 01:52:00,23.0,2.0,-100.00,NNE,12,5.0,12.0,40,0.00,,,0.00,0.000000,,2013-02-08 06:52:00,
2013-02-08 02:01:00,23.0,2.0,-100.00,NNE,12,5.0,12.0,40,0.00,,,0.00,0.000000,,2013-02-08 07:01:00,
2013-02-08 02:11:00,23.0,2.0,-100.00,NNE,12,5.0,12.0,40,0.00,,,0.00,0.000000,,2013-02-08 07:11:00,
2013-02-08 02:32:00,23.0,1.0,-100.00,SE,128,8.0,20.0,38,0.00,,,0.00,0.000000,,2013-02-08 07:32:00,
2013-02-08 02:42:00,23.0,1.0,-100.00,SE,128,8.0,20.0,38,0.00,,,0.00,0.000000,,2013-02-08 07:42:00,
2013-02-08 02:52:00,23.0,1.0,-100.00,SE,128,8.0,20.0,38,0.00,,,0.00,0.000000,,2013-02-08 07:52:00,
2013-02-08 03:01:00,23.0,1.0,-100.00,SE,128,8.0,20.0,38,0.00,,,0.00,0.000000,,2013-02-08 08:01:00,
2013-02-08 03:11:00,23.0,1.0,-100.00,SE,128,8.0,20.0,38,0.00,,,0.00,0.000000,,2013-02-08 08:11:00,
2013-02-08 03:42:00,22.0,3.0,-100.00,SSE,165,9.0,22.0,44,0.00,,,0.00,0.000000,,2013-02-08 08:42:00,
2013-02-08 03:52:00,22.0,3.0,-100.00,SSE,165,9.0,22.0,44,0.00,,,0.00,0.000000,,2013-02-08 08:52:00,
2013-02-08 04:03:00,22.0,3.0,-100.00,SSE,165,9.0,22.0,44,0.00,,,0.00,0.000000,,2013-02-08 09:03:00,
2013-02-08 04:11:00,22.0,3.0,-100.00,SSE,165,9.0,22.0,44,0.00,,,0.00,0.000000,,2013-02-08 09:11:00,
2013-02-08 04:32:00,24.0,3.0,-100.00,NNW,331,4.0,13.0,40,0.00,,,0.00,0.000000,,2013-02-08 09:32:00,
2013-02-08 04:42:00,24.0,3.0,-100.00,NNW,331,4.0,13.0,40,0.00,,,0.00,0.000000,,2013-02-08 09:42:00,
2013-02-08 04:52:00,24.0,3.0,-100.00,NNW,331,4.0,13.0,40,0.00,,,0.00,0.000000,,2013-02-08 09:52:00,
2013-02-08 05:01:00,24.0,3.0,-100.00,NNW,331,4.0,13.0,40,0.00,,,0.00,0.000000,,2013-02-08 10:01:00,
2013-02-08 05:12:00,24.0,3.0,-100.00,NNW,331,4.0,13.0,40,0.00,,,0.00,0.000000,,2013-02-08 10:12:00,
2013-02-08 05:32:00,23.0,9.0,-100.00,SW,232,8.0,19.0,55,0.00,,,0.00,0.000000,,2013-02-08 10:32:00,
2013-02-08 05:42:00,23.0,9.0,-100.00,SW,232,8.0,19.0,55,0.00,,,0.00,0.000000,,2013-02-08 10:42:00,
2013-02-08 05:52:00,23.0,9.0,-100.00,SW,232,8.0,19.0,55,0.00,,,0.00,0.000000,,2013-02-08 10:52:00,
2013-02-08 06:02:00,23.0,9.0,-100.00,SW,232,8.0,19.0,55,0.00,,,0.00,0.000000,,2013-02-08 11:02:00,
2013-02-08 06:11:00,23.0,9.0,-100.00,SW,232,8.0,19.0,55,0.00,,,0.00,0.000000,,2013-02-08 11:11:00,
2013-02-08 06:32:00,23.0,13.0,-100.00,West,271,6.0,16.0,64,0.00,,,0.00,0.000000,,2013-02-08 11:32:00,
2013-02-08 06:42:00,23.0,13.0,-100.00,West,271,6.0,16.0,64,0.00,,,0.00,0.000000,,2013-02-08 11:42:00,
2013-02-08 06:53:00,23.0,13.0,-100.00,West,271,6.0,16.0,64,0.00,,,0.00,0.000000,,2013-02-08 11:53:00,
2013-02-08 07:02:00,23.0,13.0,-100.00,West,271,6.0,16.0,64,0.00,,,0.00,0.000000,,2013-02-08 12:02:00,
2013-02-08 07:11:00,23.0,13.0,-100.00,West,271,6.0,16.0,64,0.00,,,0.00,0.000000,,2013-02-08 12:11:00,
2013-02-08 07:33:00,23.0,12.0,-100.00,SSW,203,11.0,21.0,62,0.00,,,0.00,1.000000,,2013-02-08 12:33:00,
2013-02-08 07:42:00,23.0,12.0,-100.00,SSW,203,11.0,21.0,62,0.00,,,0.00,1.000000,,2013-02-08 12:42:00,
2013-02-08 07:52:00,23.0,12.0,-100.00,SSW,203,11.0,21.0,62,0.00,,,0.00,1.000000,,2013-02-08 12:52:00,
2013-02-08 08:02:00,23.0,12.0,-100.00,SSW,203,11.0,21.0,62,0.00,,,0.00,1.000000,,2013-02-08 13:02:00,
2013-02-08 08:12:00,23.0,12.0,-100.00,SSW,203,11.0,21.0,62,0.00,,,0.00,1.000000,,2013-02-08 13:12:00,
2013-02-08 08:32:00,23.0,13.0,-100.00,SW,227,6.0,22.0,66,0.00,,,0.00,6.000000,,2013-02-08 13:32:00,
2013-02-08 08:43:00,23.0,13.0,-100.00,SW,227,6.0,22.0,66,0.00,,,0.00,6.000000,,2013-02-08 13:43:00,
2013-02-08 08:52:00,23.0,13.0,-100.00,SW,227,6.0,22.0,66,0.00,,,0.00,6.000000,,2013-02-08 13:52:00,
2013-02-08 09:02:00,23.0,13.0,-100.00,SW,227,6.0,22.0,66,0.00,,,0.00,6.000000,,2013-02-08 14:02:00,
2013-02-08 09:11:00,23.0,13.0,-100.00,SW,227,6.0,22.0,66,0.00,,,0.00,6.000000,,2013-02-08 14:11:00,
2013-02-08 09:42:00,24.0,14.0,-100.00,SW,235,7.0,13.0,66,0.00,,,0.00,30.000000,,2013-02-08 14:42:00,
2013-02-08 09:52:00,24.0,14.0,-100.00,SW,235,7.0,13.0,66,0.00,,,0.00,30.000000,,2013-02-08 14:52:00,
2013-02-08 10:02:00,24.0,14.0,-100.00,SW,235,7.0,13.0,66,0.00,,,0.00,30.000000,,2013-02-08 15:02:00,
2013-02-08 10:12:00,24.0,14.0,-100.00,SW,235,7.0,13.0,66,0.00,,,0.00,30.000000,,2013-02-08 15:12:00,
2013-02-08 10:32:00,24.0,15.0,-100.00,West,270,6.0,17.0,69,0.00,,,0.00,58.000000,,2013-02-08 15:32:00,
2013-02-08 10:42:00,24.0,15.0,-100.00,West,270,6.0,17.0,69,0.00,,,0.00,58.000000,,2013-02-08 15:42:00,
2013-02-08 10:52:00,24.0,15.0,-100.00,West,270,6.0,17.0,69,0.00,,,0.00,58.000000,,2013-02-08 15:52:00,
2013-02-08 11:02:00,24.0,15.0,-100.00,West,270,6.0,17.0,69,0.00,,,0.00,58.000000,,2013-02-08 16:02:00,
2013-02-08 11:11:00,24.0,15.0,-100.00,West,270,6.0,17.0,69,0.00,,,0.00,58.000000,,2013-02-08 16:11:00,
2013-02-08 11:33:00,25.0,16.0,-100.00,SSW,203,11.0,25.0,67,0.00,,,0.00,83.000000,,2013-02-08 16:33:00,
2013-02-08 11:42:00,25.0,16.0,-100.00,SSW,203,11.0,25.0,67,0.00,,,0.00,83.000000,,2013-02-08 16:42:00,
2013-02-08 11:52:00,25.0,16.0,-100.00,SSW,203,11.0,25.0,67,0.00,,,0.00,83.000000,,2013-02-08 16:52:00,
2013-02-08 12:04:00,25.0,16.0,-100.00,SSW,203,11.0,25.0,67,0.00,,,0.00,83.000000,,2013-02-08 17:04:00,
2013-02-08 12:12:00,25.0,16.0,-100.00,SSW,203,11.0,25.0,67,0.00,,,0.00,83.000000,,2013-02-08 17:12:00,
2013-02-08 12:33:00,26.0,17.0,-100.00,NW,321,7.0,27.0,69,0.00,,,0.00,78.000000,,2013-02-08 17:33:00,
2013-02-08 12:42:00,26.0,17.0,-100.00,NW,321,7.0,27.0,69,0.00,,,0.00,78.000000,,2013-02-08 17:42:00,
2013-02-08 12:53:00,26.0,17.0,-100.00,NW,321,7.0,27.0,69,0.00,,,0.00,78.000000,,2013-02-08 17:53:00,
2013-02-08 13:03:00,26.0,17.0,-100.00,NW,321,7.0,27.0,69,0.00,,,0.00,78.000000,,2013-02-08 18:03:00,
2013-02-08 13:12:00,26.0,17.0,-100.00,NW,321,7.0,27.0,69,0.00,,,0.00,78.000000,,2013-02-08 18:12:00,
2013-02-08 13:44:00,25.0,16.0,-100.00,NNE,26,8.0,23.0,67,0.00,,,0.00,56.000000,,2013-02-08 18:44:00,
2013-02-08 13:53:00,25.0,16.0,-100.00,NNE,26,8.0,23.0,67,0.00,,,0.00,56.000000,,2013-02-08 18:53:00,
2013-02-08 14:02:00,25.0,16.0,-100.00,NNE,26,8.0,23.0,67,0.00,,,0.00,56.000000,,2013-02-08 19:02:00,
2013-02-08 14:12:00,25.0,16.0,-100.00,NNE,26,8.0,23.0,67,0.00,,,0.00,56.000000,,2013-02-08 19:12:00,
2013-02-08 14:42:00,25.0,16.0,-100.00,North,4,9.0,20.0,68,0.00,,,0.00,58.000000,,2013-02-08 19:42:00,
2013-02-08 14:52:00,25.0,16.0,-100.00,North,4,9.0,20.0,68,0.00,,,0.00,58.000000,,2013-02-08 19:52:00,
2013-02-08 15:02:00,25.0,16.0,-100.00,North,4,9.0,20.0,68,0.00,,,0.00,58.000000,,2013-02-08 20:02:00,
2013-02-08 15:12:00,25.0,16.0,-100.00,North,4,9.0,20.0,68,0.00,,,0.00,58.000000,,2013-02-08 20:12:00,
2013-02-08 15:42:00,25.0,15.0,-100.00,NE,49,10.0,26.0,65,0.00,,,0.00,62.000000,,2013-02-08 20:42:00,
2013-02-08 15:52:00,25.0,15.0,-100.00,NE,49,10.0,26.0,65,0.00,,,0.00,62.000000,,2013-02-08 20:52:00,
2013-02-08 16:02:00,25.0,15.0,-100.00,NE,49,10.0,26.0,65,0.00,,,0.00,62.000000,,2013-02-08 21:02:00,
2013-02-08 16:12:00,25.0,15.0,-100.00,NE,49,10.0,26.0,65,0.00,,,0.00,62.000000,,2013-02-08 21:12:00,
2013-02-08 16:42:00,24.0,15.0,-100.00,NE,47,15.0,32.0,68,0.00,,,0.00,30.000000,,2013-02-08 21:42:00,
2013-02-08 16:52:00,24.0,15.0,-100.00,NE,47,15.0,32.0,68,0.00,,,0.00,30.000000,,2013-02-08 21:52:00,
2013-02-08 17:02:00,24.0,15.0,-100.00,NE,47,15.0,32.0,68,0.00,,,0.00,30.000000,,2013-02-08 22:02:00,
2013-02-08 17:11:00,24.0,15.0,-100.00,NE,47,15.0,32.0,68,0.00,,,0.00,30.000000,,2013-02-08 22:11:00,
2013-02-08 17:42:00,23.0,14.0,-100.00,East,81,17.0,37.0,67,0.00,,,0.00,7.000000,,2013-02-08 22:42:00,
2013-02-08 17:52:00,23.0,14.0,-100.00,East,81,17.0,37.0,67,0.00,,,0.00,7.000000,,2013-02-08 22:52:00,
2013-02-08 18:02:00,23.0,14.0,-100.00,East,81,17.0,37.0,67,0.00,,,0.00,7.000000,,2013-02-08 23:02:00,
2013-02-08 18:11:00,23.0,14.0,-100.00,East,81,17.0,37.0,67,0.00,,,0.00,7.000000,,2013-02-08 23:11:00,
2013-02-08 18:32:00,23.0,14.0,-100.00,ESE,103,15.0,44.0,68,0.00,,,0.00,0.000000,,2013-02-08 23:32:00,
2013-02-08 18:42:00,23.0,14.0,-100.00,ESE,103,15.0,44.0,68,0.00,,,0.00,0.000000,,2013-02-08 23:42:00,
2013-02-08 18:52:00,23.0,14.0,-100.00,ESE,103,15.0,44.0,68,0.00,,,0.00,0.000000,,2013-02-08 23:52:00,
2013-02-08 19:02:00,23.0,14.0,-100.00,ESE,103,15.0,44.0,68,0.00,,,0.00,0.000000,,2013-02-09 00:02:00,
2013-02-08 19:12:00,23.0,14.0,-100.00,ESE,103,15.0,44.0,68,0.00,,,0.00,0.000000,,2013-02-09 00:12:00,
2013-02-08 19:32:00,22.0,13.0,-100.00,North,3,7.0,27.0,69,0.00,,,0.00,0.000000,,2013-02-09 00:32:00,
2013-02-08 19:42:00,22.0,13.0,-100.00,North,3,7.0,27.0,69,0.00,,,0.00,0.000000,,2013-02-09 00:42:00,
2013-02-08 19:52:00,22.0,13.0,-100.00,North,3,7.0,27.0,69,0.00,,,0.00,0.000000,,2013-02-09 00:52:00,
2013-02-08 20:02:00,22.0,13.0,-100.00,North,3,7.0,27.0,69,0.00,,,0.00,0.000000,,2013-02-09 01:02:00,
2013-02-08 20:12:00,22.0,13.0,-100.00,North,3,7.0,27.0,69,0.00,,,0.00,0.000000,,2013-02-09 01:12:00,
2013-02-08 20:32:00,22.0,14.0,-100.00,NE,41,12.0,22.0,70,0.00,,,0.00,0.000000,,2013-02-09 01:32:00,
2013-02-08 20:42:00,22.0,14.0,-100.00,NE,41,12.0,22.0,70,0.00,,,0.00,0.000000,,2013-02-09 01:42:00,
2013-02-08 20:52:00,22.0,14.0,-100.00,NE,41,12.0,22.0,70,0.00,,,0.00,0.000000,,2013-02-09 01:52:00,
2013-02-08 21:01:00,22.0,14.0,-100.00,NE,41,12.0,22.0,70,0.00,,,0.00,0.000000,,2013-02-09 02:01:00,
2013-02-08 21:11:00,22.0,14.0,-100.00,NE,41,12.0,22.0,70,0.00,,,0.00,0.000000,,2013-02-09 02:11:00,
2013-02-08 21:42:00,22.0,14.0,-100.00,NNE,17,12.0,25.0,70,0.00,,,0.00,0.000000,,2013-02-09 02:42:00,
2013-02-08 21:53:00,22.0,14.0,-100.00,NNE,17,12.0,25.0,70,0.00,,,0.00,0.000000,,2013-02-09 02:53:00,
2013-02-08 22:02:00,22.0,14.0,-100.00,NNE,17,12.0,25.0,70,0.00,,,0.00,0.000000,,2013-02-09 03:02:00,
2013-02-08 22:11:00,22.0,14.0,-100.00,NNE,17,12.0,25.0,70,0.00,,,0.00,0.000000,,2013-02-09 03:11:00,
2013-02-08 22:32:00,20.0,14.0,-100.00,NNW,338,9.0,28.0,77,0.00,,,0.00,0.000000,,2013-02-09 03:32:00,
2013-02-08 22:42:00,20.0,14.0,-100.00,NNW,338,9.0,28.0,77,0.00,,,0.00,0.000000,,2013-02-09 03:42:00,
2013-02-08 22:53:00,20.0,14.0,-100.00,NNW,338,9.0,28.0,77,0.00,,,0.00,0.000000,,2013-02-09 03:53:00,
2013-02-08 23:03:00,20.0,14.0,-100.00,NNW,338,9.0,28.0,77,0.00,,,0.00,0.000000,,2013-02-09 04:03:00,
2013-02-08 23:12:00,20.0,14.0,-100.00,NNW,338,9.0,28.0,77,0.00,,,0.00,0.000000,,2013-02-09 04:12:00,
2013-02-08 23:32:00,20.0,17.0,-100.00,ENE,75,3.0,23.0,87,0.00,,,0.00,0.000000,,2013-02-09 04:32:00,
2013-02-08 23:42:00,20.0,17.0,-100.00,ENE,75,3.0,23.0,87,0.00,,,0.00,0.000000,,2013-02-09 04:42:00,
2013-02-08 23:52:00,20.0,17.0,-100.00,ENE,75,3.0,23.0,87,0.00,,,0.00,0.000000,,2013-02-09 04:52:00,